Julian (221, 222, JU1, MAN1, OK1, SL1) Station Data

Red Flag Warning: No
Fire Weather Zone: 258
SDGE Region: Ramona
Lat/Lon: 33.076/-116.591

Observations

Time Wind Speed/Gust Temp(F) RH Fuel Moist Fuel Temp(F) Dewpt(F) Tmax(F) Tmin(F) Accum Precip 10-min Precip SL Press(mb)
3/29 8:00am 83 8 G 14 58° 18% - - 15° 58° 42.5° - - -
3/29 7:50am 86 8 G 12 57° 18% - - 15° 57.5° 42.5° - - -
3/29 7:40am 89 8 G 12 57° 19% - - 14° 57° 42.5° - - -
3/29 7:30am 94 8 G 13 56° 19% - - 14° 56.5° 42.5° - - -
3/29 7:20am 85 8 G 12 55° 19% - - 14° 55.6° 42.5° - - -
3/29 7:10am 92 8 G 12 55° 19% - - 13° 55.6° 42.5° - - -
3/29 7:00am 85 6 G 11 54° 19% - - 13° 55.6° 42.5° - - -
3/29 6:50am 83 6 G 10 54° 19% - - 13° 55.6° 42.5° - - -
3/29 6:40am 90 6 G 10 53° 19% - - 13° 55.6° 42.5° - - -
3/29 6:30am 86 7 G 11 54° 19% - - 12° 55.6° 42.5° - - -
3/29 6:20am 66 5 G 9 54° 18% - - 12° 55.6° 42.5° - - -
3/29 6:10am 95 6 G 10 55° 18% - - 12° 55.6° 42.5° - - -
3/29 6:00am 95 6 G 10 54° 19% - - 12° 55.6° 42.5° - - -
3/29 5:50am 100 7 G 10 54° 18% - - 12° 55.6° 42.5° - - -
3/29 5:40am 104 6 G 9 54° 19% - - 13° 55.6° 42.5° - - -
3/29 5:30am 104 6 G 9 54° 18% - - 12° 55.6° 42.5° - - -
3/29 5:20am 99 6 G 10 55° 18% - - 12° 55.6° 42.5° - - -
3/29 5:10am 92 8 G 11 55° 17% - - 11° 55.6° 42.5° - - -
3/29 5:00am 93 9 G 14 55° 17% - - 11° 55.1° 42.5° - - -
3/29 4:50am 96 7 G 11 54° 18% - - 12° 54.6° 42.5° - - -
3/29 4:40am 97 6 G 9 54° 19% - - 12° 54.6° 42.5° - - -
3/29 4:30am 98 8 G 13 54° 18% - - 12° 54.6° 42.5° - - -
3/29 4:20am 96 8 G 12 54° 18% - - 12° 54.6° 42.5° - - -
3/29 4:10am 100 8 G 12 54° 18% - - 12° 54.4° 42.5° - - -
3/29 4:00am 104 5 G 11 53° 19% - - 12° 53.5° 42.5° - - -
3/29 3:50am 102 4 G 7 53° 19% - - 12° 53.1° 42.5° - - -
3/29 3:40am 105 3 G 7 52° 21% - - 13° 53.1° 42.5° - - -
3/29 3:30am 354 1 G 6 52° 21% - - 13° 53.1° 42.5° - - -
3/29 3:20am 110 3 G 6 52° 21% - - 13° 52.7° 42.5° - - -
3/29 3:10am 82 4 G 7 51° 22% - - 13° 52.4° 42.5° - - -
3/29 3:00am 77 4 G 7 50° 23% - - 14° 52.4° 42.5° - - -
3/29 2:50am 62 3 G 5 51° 22% - - 14° 52.4° 42.5° - - -
3/29 2:40am 81 3 G 5 52° 22% - - 14° 52.4° 42.5° - - -
3/29 2:30am 100 5 G 8 52° 22% - - 14° 52.4° 42.5° - - -
3/29 2:20am 96 6 G 9 52° 22% - - 14° 52.4° 42.5° - - -
3/29 2:10am 95 4 G 9 50° 26% - - 17° 51.2° 42.5° - - -
3/29 2:00am 90 2 G 5 47° 34% - - 20° 48.3° 42.5° - - -
3/29 1:50am 275 1 G 4 44° 44% - - 24° 46.4° 42.5° - - -
3/29 1:40am 231 1 G 4 43° 48% - - 25° 46.4° 42.5° - - -
3/29 1:30am 250 1 G 3 45° 46% - - 25° 46.4° 42.5° - - -
3/29 1:20am 236 1 G 2 45° 45% - - 25° 46.4° 42.5° - - -
3/29 1:10am 233 1 G 2 43° 50% - - 26° 45.7° 42.5° - - -
3/29 1:00am 169 1 G 1 43° 53% - - 27° 45.7° 42.5° - - -
3/29 12:50am 267 1 G 1 43° 54% - - 28° 45.7° 42.5° - - -
3/29 12:40am 264 1 G 1 43° 56% - - 28° 45.7° 42.5° - - -
3/29 12:30am 209 1 G 1 43° 57% - - 29° 45.7° 42.8° - - -
3/29 12:20am 230 1 G 1 44° 54% - - 29° 45.7° 43.1° - - -
3/29 12:10am 232 1 G 2 44° 54% - - 28° 45.5° 43.1° - - -
3/29 12:00am 233 1 G 1 44° 54% - - 29° 63.1° 38.7° - - -
3/28 11:50pm 268 1 G 1 44° 52% - - 28° 63.1° 38.7° - - -
3/28 11:40pm 186 1 G 1 44° 53% - - 28° 63.1° 38.7° - - -
3/28 11:30pm 254 1 G 1 43° 54% - - 28° 63.1° 38.7° - - -
3/28 11:20pm 253 1 G 1 43° 59% - - 30° 63.1° 38.7° - - -
3/28 11:10pm 208 1 G 3 44° 53% - - 28° 63.1° 38.7° - - -
3/28 11:00pm 169 1 G 1 43° 58% - - 30° 63.1° 38.7° - - -
3/28 10:50pm 191 1 G 2 43° 60% - - 30° 63.1° 38.7° - - -
3/28 10:40pm 221 1 G 1 46° 54% - - 30° 63.1° 38.7° - - -
3/28 10:30pm 203 1 G 1 47° 50% - - 29° 63.1° 38.7° - - -
3/28 10:20pm 223 1 G 2 47° 51% - - 29° 63.1° 38.7° - - -
3/28 10:10pm 233 2 G 4 47° 55% - - 31° 63.1° 38.7° - - -
3/28 10:00pm 196 1 G 3 47° 59% - - 33° 63.1° 38.7° - - -
3/28 9:50pm 228 1 G 3 49° 53% - - 32° 63.1° 38.7° - - -
3/28 9:40pm 237 2 G 4 48° 58% - - 34° 63.1° 38.7° - - -
3/28 9:30pm 252 3 G 6 46° 70% - - 37° 63.1° 38.7° - - -
3/28 9:20pm 178 1 G 2 46° 71% - - 37° 63.1° 38.7° - - -
3/28 9:10pm 226 2 G 3 49° 62% - - 37° 63.1° 38.7° - - -
3/28 9:00pm 219 2 G 3 48° 67% - - 37° 63.1° 38.7° - - -
3/28 8:50pm 223 2 G 4 50° 61% - - 37° 63.1° 38.7° - - -
3/28 8:40pm 221 2 G 4 47° 69% - - 38° 63.1° 38.7° - - -
3/28 8:30pm 256 2 G 4 48° 68% - - 38° 63.1° 38.7° - - -
3/28 8:20pm 234 2 G 4 50° 65% - - 38° 63.1° 38.7° - - -
3/28 8:10pm 224 2 G 4 51° 62% - - 38° 63.1° 38.7° - - -
3/28 8:00pm 205 3 G 4 50° 64% - - 39° 63.1° 38.7° - - -
3/28 7:50pm 244 2 G 4 50° 65% - - 39° 63.1° 38.7° - - -
3/28 7:40pm 215 2 G 4 51° 63% - - 39° 63.1° 38.7° - - -
3/28 7:30pm 214 1 G 3 52° 61% - - 39° 63.1° 38.7° - - -
3/28 7:20pm 247 2 G 4 53° 59% - - 39° 63.1° 38.7° - - -
3/28 7:10pm 251 3 G 5 53° 58% - - 39° 63.1° 38.7° - - -
3/28 7:00pm 258 3 G 6 54° 55% - - 39° 63.1° 38.7° - - -
3/28 6:50pm 252 3 G 7 55° 53% - - 39° 63.1° 38.7° - - -
3/28 6:40pm 262 5 G 9 56° 51% - - 38° 63.1° 38.7° - - -
3/28 6:30pm 264 5 G 8 56° 50% - - 38° 63.1° 38.7° - - -
3/28 6:20pm 259 5 G 9 57° 49% - - 38° 63.1° 38.7° - - -
3/28 6:10pm 260 5 G 9 58° 48% - - 38° 63.1° 38.7° - - -
3/28 6:00pm 266 6 G 10 59° 45% - - 38° 63.1° 38.7° - - -
3/28 5:50pm 260 3 G 8 60° 41% - - 36° 63.1° 38.7° - - -
3/28 5:40pm 267 5 G 10 60° 40% - - 36° 63.1° 38.7° - - -
3/28 5:30pm 268 4 G 9 61° 39% - - 35° 63.1° 38.7° - - -
3/28 5:20pm 265 4 G 7 61° 38% - - 35° 63.1° 38.7° - - -
3/28 5:10pm 257 5 G 8 61° 38% - - 35° 63.1° 38.7° - - -
3/28 5:00pm 265 5 G 9 61° 37% - - 35° 63.1° 38.7° - - -
3/28 4:50pm 275 5 G 11 61° 36% - - 34° 63.1° 38.7° - - -
3/28 4:40pm 258 4 G 10 62° 33% - - 33° 63.1° 38.7° - - -
3/28 4:30pm 270 4 G 9 61° 33% - - 32° 63.1° 38.7° - - -
3/28 4:20pm 282 4 G 8 61° 34% - - 32° 63.1° 38.7° - - -
3/28 4:10pm 276 5 G 10 61° 34% - - 33° 63.1° 38.7° - - -
3/28 4:00pm 258 4 G 8 62° 33% - - 32° 63.1° 38.7° - - -
3/28 3:50pm 271 3 G 10 62° 33% - - 32° 63.1° 38.7° - - -
3/28 3:40pm 285 3 G 7 62° 32% - - 32° 63.1° 38.7° - - -
3/28 3:30pm 281 4 G 9 61° 34% - - 33° 63.1° 38.7° - - -
3/28 3:20pm 247 5 G 8 62° 32% - - 32° 63.1° 38.7° - - -
3/28 3:10pm 277 2 G 7 62° 33% - - 32° 62.8° 38.7° - - -
3/28 3:00pm 279 4 G 8 60° 34% - - 32° 62.8° 38.7° - - -
3/28 2:50pm 254 5 G 9 61° 34% - - 32° 62.8° 38.7° - - -
3/28 2:40pm 281 5 G 10 61° 34% - - 32° 62.8° 38.7° - - -
3/28 2:30pm 269 4 G 9 60° 33% - - 31° 62.8° 38.7° - - -
3/28 2:20pm 267 4 G 11 60° 34% - - 32° 62.8° 38.7° - - -
3/28 2:10pm 274 6 G 10 60° 34% - - 32° 62.8° 38.7° - - -
3/28 2:00pm 268 5 G 11 61° 31% - - 30° 62.8° 38.7° - - -
3/28 1:50pm 276 4 G 10 60° 32% - - 30° 62.8° 38.7° - - -
3/28 1:40pm 274 6 G 11 60° 31% - - 29° 62.8° 38.7° - - -
3/28 1:30pm 271 5 G 9 59° 33% - - 30° 62.8° 38.7° - - -
3/28 1:20pm 269 6 G 10 60° 32% - - 30° 62.8° 38.7° - - -
3/28 1:10pm 251 2 G 9 61° 20% - - 19° 62.8° 38.7° - - -
3/28 1:00pm 76 5 G 10 60° 16% - - 14° 61.9° 38.7° - - -
3/28 12:50pm 64 3 G 11 61° 15% - - 13° 61.9° 38.7° - - -
3/28 12:40pm 225 2 G 6 60° 14% - - 11° 61.5° 38.7° - - -
3/28 12:30pm 348 3 G 6 60° 14% - - 10° 60° 38.7° - - -
3/28 12:20pm 129 4 G 7 59° 15% - - 11° 59.8° 38.7° - - -
3/28 12:10pm 88 3 G 6 59° 14% - - 11° 59.4° 38.7° - - -
3/28 12:00pm 250 2 G 4 59° 15% - - 11° 59.1° 38.7° - - -
3/28 11:50am 101 3 G 7 58° 17% - - 13° 58.2° 38.7° - - -
3/28 11:40am 63 6 G 10 57° 18% - - 14° 57.4° 38.7° - - -
3/28 11:30am 91 4 G 11 57° 19% - - 14° 57.4° 38.7° - - -
3/28 11:20am 69 5 G 9 56° 18% - - 14° 56.9° 38.7° - - -
3/28 11:10am 66 4 G 9 56° 18% - - 14° 56.7° 38.7° - - -
3/28 11:00am 91 6 G 13 55° 19% - - 14° 56.1° 38.7° - - -
3/28 10:50am 92 7 G 11 55° 19% - - 13° 55.4° 38.7° - - -
3/28 10:40am 100 6 G 12 55° 20% - - 14° 55.2° 38.7° - - -
3/28 10:30am 84 6 G 12 55° 20% - - 15° 55° 38.7° - - -
3/28 10:20am 81 8 G 13 54° 20% - - 15° 54.7° 38.7° - - -
3/28 10:10am 76 8 G 14 54° 21% - - 15° 54.4° 38.7° - - -
3/28 10:00am 85 8 G 13 54° 21% - - 14° 54.2° 38.7° - - -
3/28 9:50am 63 7 G 12 53° 23% - - 17° 54.1° 38.7° - - -
3/28 9:40am 79 8 G 14 53° 23% - - 16° 53.9° 38.7° - - -
3/28 9:30am 76 8 G 15 53° 23% - - 16° 53.2° 38.7° - - -
3/28 9:20am 64 8 G 14 52° 24% - - 17° 52.4° 38.7° - - -
3/28 9:10am 66 8 G 15 52° 25% - - 17° 52.3° 38.7° - - -
3/28 9:00am 67 8 G 15 52° 25% - - 17° 52.1° 38.7° - - -
3/28 8:50am 68 8 G 15 51° 25% - - 17° 51.6° 38.7° - - -
3/28 8:40am 61 7 G 11 51° 27% - - 17° 50.9° 38.7° - - -
3/28 8:30am 60 6 G 11 50° 28% - - 18° 50.4° 38.7° - - -
3/28 8:20am 68 7 G 11 50° 27% - - 18° 50.3° 38.7° - - -
3/28 8:10am 77 7 G 12 50° 26% - - 17° 50.1° 38.7° - - -
3/28 8:00am 93 7 G 13 49° 26% - - 16° 49.7° 38.7° - - -
3/28 7:50am 88 5 G 9 49° 27% - - 17° 49.3° 38.7° - - -
3/28 7:40am 89 4 G 8 48° 30% - - 17° 48.3° 38.7° - - -
3/28 7:30am 70 5 G 8 46° 33% - - 19° 46.7° 38.7° - - -
3/28 7:20am 51 1 G 4 45° 36% - - 19° 46.4° 38.7° - - -
3/28 7:10am 86 2 G 5 45° 35% - - 19° 46.4° 38.7° - - -
3/28 7:00am 109 3 G 7 44° 36% - - 18° 46.4° 38.7° - - -
3/28 6:50am 87 4 G 7 43° 38% - - 19° 46.4° 38.7° - - -
3/28 6:40am 100 4 G 5 43° 39% - - 20° 46.4° 38.7° - - -
3/28 6:30am 94 3 G 5 40° 47% - - 22° 46.4° 38.7° - - -
3/28 6:20am 61 1 G 3 39° 53% - - 23° 46.4° 38.7° - - -
3/28 6:10am 106 1 G 3 40° 51% - - 23° 46.4° 39° - - -
3/28 6:00am 119 1 G 1 40° 51% - - 23° 46.4° 39° - - -